Time;durP1;ratioP1;P1;durP2;ratioP2;P2;SDS_P1;SDS_P2;PMS_P1;PMS_P2;Temp;Humidity;BMP_temperature;BMP_pressure;BME280_temperature;BME280_humidity;BME280_pressure;Samples;Min_cycle;Max_cycle;Signal;HPM_P1;HPM_P2
2021/12/05 00:16:55;;;;;;;46.45;19.27;;;;;;;0.54;87.70;96655.88;2567397;28;20058;-75
2021/12/05 00:22:17;;;;;;;61.25;25.55;;;;;;;0.40;88.92;96667.25;2569269;28;20046;-75
2021/12/05 00:24:18;;;;;;;47.70;22.67;;;;;;;0.36;89.01;96675.91;2569383;28;20162;-74
2021/12/05 00:25:22;;;;;;;51.95;22.23;;;;;;;0.37;89.15;96676.78;2558580;28;20051;-75
2021/12/05 00:26:38;;;;;;;45.65;21.25;;;;;;;0.47;88.91;96680.88;2569447;28;20055;-74
2021/12/05 00:29:48;;;;;;;52.42;23.15;;;;;;;0.53;88.37;96679.94;2538601;28;20048;-74
2021/12/05 00:31:24;;;;;;;48.55;21.38;;;;;;;0.54;88.18;96686.78;2569173;28;20094;-74
2021/12/05 00:43:01;;;;;;;37.10;17.55;;;;;;;0.55;87.72;96706.50;2528191;29;20578;-74
2021/12/05 01:00:13;;;;;;;40.05;17.55;;;;;;;0.41;88.28;96751.34;2568683;28;20062;-75
2021/12/05 01:11:49;;;;;;;36.30;16.42;;;;;;;0.30;88.61;96771.28;2568783;28;20054;-75
2021/12/05 01:16:06;;;;;;;37.50;16.25;;;;;;;0.25;88.77;96770.47;2568708;28;20145;-75
2021/12/05 01:17:31;;;;;;;35.35;16.88;;;;;;;0.21;88.74;96781.69;2568777;28;20888;-77
2021/12/05 01:18:47;;;;;;;32.03;15.07;;;;;;;0.32;88.92;96779.81;2568950;28;20145;-75
2021/12/05 01:20:08;;;;;;;34.05;14.98;;;;;;;0.46;88.82;96784.75;2568762;28;20055;-74
2021/12/05 01:21:26;;;;;;;35.92;16.67;;;;;;;0.55;88.59;96783.75;2569046;28;20067;-75
2021/12/05 01:22:48;;;;;;;33.10;14.45;;;;;;;0.70;88.25;96783.56;2568694;28;20076;-75
2021/12/05 01:24:57;;;;;;;29.48;13.25;;;;;;;0.84;87.83;96785.91;2568681;28;20556;-75
2021/12/05 01:31:59;;;;;;;29.33;14.10;;;;;;;0.63;88.00;96781.06;2568572;28;20082;-75
2021/12/05 01:34:44;;;;;;;30.45;14.57;;;;;;;0.50;88.08;96778.72;2568357;28;20093;-75
2021/12/05 01:36:40;;;;;;;29.60;15.10;;;;;;;0.47;88.24;96783.88;2568847;28;20081;-75
2021/12/05 01:47:13;;;;;;;34.58;15.25;;;;;;;0.35;88.90;96810.66;2536124;29;20518;-74
2021/12/05 01:54:34;;;;;;;29.50;13.68;;;;;;;0.44;89.26;96808.84;2568541;28;20054;-75
2021/12/05 02:33:44;;;;;;;21.65;10.82;;;;;;;0.22;89.15;96838.31;2568135;28;20082;-75
2021/12/05 02:39:46;;;;;;;19.40;10.20;;;;;;;0.22;89.37;96848.59;2567745;28;20050;-74
2021/12/05 02:41:22;;;;;;;20.45;9.82;;;;;;;0.22;89.41;96858.91;2567866;28;20445;-75
2021/12/05 02:42:49;;;;;;;17.80;9.07;;;;;;;0.21;89.64;96851.19;2568119;28;20050;-77
2021/12/05 02:44:14;;;;;;;19.35;9.68;;;;;;;0.19;89.79;96852.91;2567979;28;20626;-74
2021/12/05 02:45:32;;;;;;;18.75;9.75;;;;;;;0.19;89.91;96858.06;2567993;28;20078;-74
2021/12/05 02:47:04;;;;;;;20.05;10.38;;;;;;;0.19;89.97;96868.38;2567895;28;20058;-74
2021/12/05 02:48:22;;;;;;;21.05;10.18;;;;;;;0.18;90.02;96861.50;2557192;29;20055;-75
2021/12/05 02:49:42;;;;;;;23.20;11.30;;;;;;;0.18;89.89;96862.34;2562425;28;20055;-76
2021/12/05 02:51:00;;;;;;;21.85;11.02;;;;;;;0.20;90.11;96868.31;2568110;28;20051;-75
2021/12/05 02:52:25;;;;;;;22.45;11.07;;;;;;;0.24;89.92;96870.00;2567826;28;20505;-76
2021/12/05 02:54:03;;;;;;;16.00;8.57;;;;;;;0.57;90.35;96864.47;2567991;28;20497;-75
2021/12/05 02:55:28;;;;;;;20.98;9.70;;;;;;;0.63;90.38;96863.50;2567704;28;20059;-75
2021/12/05 02:56:49;;;;;;;17.90;8.60;;;;;;;0.91;90.18;96860.53;2567961;28;20117;-76
2021/12/05 02:58:24;;;;;;;17.92;8.15;;;;;;;1.00;89.95;96856.97;2567934;28;20047;-77
2021/12/05 02:59:49;;;;;;;15.05;7.60;;;;;;;1.13;89.55;96859.31;2567488;28;20062;-74
2021/12/05 03:01:10;;;;;;;18.73;8.65;;;;;;;1.13;89.21;96861.91;2567949;28;20043;-74
2021/12/05 03:02:38;;;;;;;14.73;7.80;;;;;;;1.21;88.90;96863.53;2568346;28;20057;-74
2021/12/05 03:03:54;;;;;;;16.30;7.75;;;;;;;1.35;88.35;96864.16;2567918;28;20042;-74
2021/12/05 03:05:14;;;;;;;12.02;7.05;;;;;;;1.57;87.66;96868.09;2567846;28;20043;-79
2021/12/05 03:06:33;;;;;;;12.20;6.82;;;;;;;1.62;87.33;96867.13;2567827;28;20054;-75
2021/12/05 03:07:57;;;;;;;10.55;6.15;;;;;;;1.75;86.55;96866.91;2567858;28;20054;-74
2021/12/05 03:09:13;;;;;;;10.68;6.05;;;;;;;1.92;85.74;96870.03;2567655;28;20505;-74
2021/12/05 03:10:29;;;;;;;12.13;6.65;;;;;;;1.95;85.17;96866.50;2567430;28;20054;-74
2021/12/05 03:11:46;;;;;;;13.80;6.90;;;;;;;1.93;85.40;96865.69;2567701;28;20046;-74
2021/12/05 03:13:02;;;;;;;11.32;6.18;;;;;;;1.93;85.58;96863.97;2567661;28;20055;-76
2021/12/05 03:14:18;;;;;;;9.75;5.78;;;;;;;1.93;85.23;96866.56;2567722;28;20433;-74
2021/12/05 03:15:34;;;;;;;10.70;6.28;;;;;;;1.95;85.35;96869.09;2567796;28;20133;-74
2021/12/05 03:16:50;;;;;;;13.05;6.60;;;;;;;1.91;85.37;96867.47;2567625;28;20492;-74
2021/12/05 03:18:06;;;;;;;15.18;7.18;;;;;;;1.88;85.44;96873.53;2567536;28;20054;-76
2021/12/05 03:19:21;;;;;;;14.35;7.63;;;;;;;1.82;85.50;96871.94;2567339;28;20597;-74
2021/12/05 03:20:37;;;;;;;13.40;7.10;;;;;;;1.80;85.76;96876.25;2567614;28;20506;-74
2021/12/05 03:21:53;;;;;;;13.23;7.05;;;;;;;1.93;85.69;96876.88;2567696;28;20050;-75
2021/12/05 03:23:09;;;;;;;14.43;7.47;;;;;;;1.98;84.91;96880.22;2567696;28;20085;-76
2021/12/05 03:24:26;;;;;;;14.07;7.95;;;;;;;1.93;84.78;96876.03;2567488;28;20148;-74
2021/12/05 03:25:42;;;;;;;16.48;7.90;;;;;;;1.85;85.10;96870.16;2567178;28;20046;-76
2021/12/05 03:26:57;;;;;;;16.55;8.50;;;;;;;1.80;85.47;96876.25;2567751;28;20476;-75
2021/12/05 03:28:13;;;;;;;14.65;7.68;;;;;;;1.76;85.56;96877.19;2567721;28;20090;-75
2021/12/05 03:29:29;;;;;;;13.02;7.47;;;;;;;1.75;85.85;96882.41;2567474;28;20046;-74
2021/12/05 03:30:45;;;;;;;13.15;7.53;;;;;;;1.76;85.79;96884.94;2567635;28;20082;-75
2021/12/05 03:32:01;;;;;;;11.02;6.22;;;;;;;1.91;85.70;96893.28;2567494;28;20065;-74
2021/12/05 03:33:16;;;;;;;10.98;5.88;;;;;;;1.96;85.12;96891.47;2567466;28;20065;-74
2021/12/05 03:34:33;;;;;;;13.00;6.60;;;;;;;1.99;85.15;96894.00;2567433;28;20058;-75
2021/12/05 03:35:49;;;;;;;9.90;6.03;;;;;;;2.07;85.02;96901.59;2567508;28;20105;-74
2021/12/05 03:37:08;;;;;;;13.18;6.70;;;;;;;2.06;84.75;96900.72;2567508;28;20059;-74
2021/12/05 03:38:24;;;;;;;10.40;6.38;;;;;;;2.01;85.01;96896.53;2567400;28;20078;-74
2021/12/05 03:39:40;;;;;;;13.02;7.32;;;;;;;1.96;84.88;96901.81;2567346;28;20058;-75
2021/12/05 03:40:55;;;;;;;10.93;6.55;;;;;;;2.00;84.87;96898.28;2567440;28;20433;-74
2021/12/05 03:42:11;;;;;;;11.63;6.70;;;;;;;1.94;84.82;96895.78;2567602;28;20049;-74
2021/12/05 03:43:27;;;;;;;13.82;7.05;;;;;;;1.87;85.08;96896.78;2567550;28;20097;-78
2021/12/05 03:44:43;;;;;;;9.98;4.93;;;;;;;1.91;85.36;96901.00;2567421;28;20060;-74
2021/12/05 03:45:59;;;;;;;9.07;5.63;;;;;;;1.89;85.31;96895.03;2567305;28;20050;-74
2021/12/05 03:47:15;;;;;;;10.95;6.00;;;;;;;1.95;85.48;96900.94;2567551;28;20066;-75
2021/12/05 03:48:37;;;;;;;10.57;6.22;;;;;;;1.97;85.20;96899.16;2567450;28;20043;-74
2021/12/05 03:49:52;;;;;;;8.23;4.83;;;;;;;1.95;85.21;96897.50;2567308;28;20053;-74
2021/12/05 03:51:12;;;;;;;9.32;4.90;;;;;;;1.96;85.09;96896.63;2567419;28;20515;-74
2021/12/05 03:52:27;;;;;;;7.85;5.18;;;;;;;1.99;85.12;96896.56;2567364;28;20090;-74
2021/12/05 03:53:44;;;;;;;6.38;4.18;;;;;;;2.08;84.65;96895.53;2567348;28;20493;-74
2021/12/05 03:55:00;;;;;;;6.85;3.80;;;;;;;2.12;84.58;96886.84;2567409;28;20065;-75
2021/12/05 03:56:16;;;;;;;7.18;4.50;;;;;;;2.19;84.14;96890.16;2567227;28;20055;-75
2021/12/05 03:57:32;;;;;;;6.35;4.18;;;;;;;2.15;84.08;96889.38;2567334;28;20050;-74
2021/12/05 03:58:49;;;;;;;7.45;4.45;;;;;;;2.17;84.33;96894.50;2567267;28;20093;-74
2021/12/05 04:00:15;;;;;;;6.18;4.43;;;;;;;2.14;84.59;96900.56;2567240;28;20078;-73
2021/12/05 04:01:31;;;;;;;6.50;4.25;;;;;;;2.16;84.20;96897.97;2567179;28;20070;-76
2021/12/05 04:02:49;;;;;;;7.57;4.18;;;;;;;2.17;84.38;96904.84;2567596;28;20090;-74
2021/12/05 04:04:06;;;;;;;6.25;4.32;;;;;;;2.15;84.32;96902.28;2567515;28;20137;-73
2021/12/05 04:05:23;;;;;;;8.40;4.45;;;;;;;2.11;84.87;96909.25;2566808;28;20054;-73
2021/12/05 04:06:39;;;;;;;8.90;5.03;;;;;;;2.02;84.76;96899.09;2567147;28;20058;-74
2021/12/05 04:07:55;;;;;;;8.65;5.30;;;;;;;1.94;85.21;96903.53;2567402;28;20505;-75
2021/12/05 04:09:12;;;;;;;10.48;5.43;;;;;;;1.87;85.51;96907.94;2567362;28;20043;-74
2021/12/05 04:10:29;;;;;;;8.48;5.35;;;;;;;1.80;85.60;96912.38;2565725;28;20062;-73
2021/12/05 04:11:56;;;;;;;10.80;5.95;;;;;;;1.76;85.88;96907.31;2567125;28;20497;-74
2021/12/05 04:13:12;;;;;;;10.15;5.93;;;;;;;1.72;85.93;96909.09;2567270;28;20043;-75
2021/12/05 04:14:35;;;;;;;12.07;6.30;;;;;;;1.74;86.22;96907.34;2567209;28;20058;-73
2021/12/05 04:15:53;;;;;;;11.18;6.57;;;;;;;1.76;86.25;96910.72;2567233;28;20050;-74
2021/12/05 04:17:11;;;;;;;11.98;6.10;;;;;;;1.86;85.94;96897.69;2567052;28;20047;-75
2021/12/05 04:18:28;;;;;;;9.93;5.65;;;;;;;1.87;85.76;96909.69;2567108;28;20250;-74
2021/12/05 04:19:44;;;;;;;9.80;5.15;;;;;;;1.86;85.47;96903.66;2567103;28;20547;-74
2021/12/05 04:21:00;;;;;;;10.00;5.55;;;;;;;1.91;85.41;96903.59;2567305;28;20058;-73
2021/12/05 04:22:16;;;;;;;8.10;5.20;;;;;;;1.91;85.31;96913.91;2567127;28;20478;-73
2021/12/05 04:23:32;;;;;;;9.70;5.60;;;;;;;1.83;85.57;96914.06;2567238;28;20133;-76
2021/12/05 04:24:49;;;;;;;8.32;5.32;;;;;;;1.78;85.79;96919.28;2567243;28;20082;-75
2021/12/05 04:26:05;;;;;;;9.70;6.13;;;;;;;1.72;85.83;96919.41;2567036;28;21065;-73
2021/12/05 04:27:20;;;;;;;11.43;7.05;;;;;;;1.67;85.96;96918.63;2567210;28;20053;-74
2021/12/05 04:28:38;;;;;;;10.95;6.68;;;;;;;1.63;86.11;96923.00;2567198;28;20073;-76
2021/12/05 04:29:54;;;;;;;10.57;5.72;;;;;;;1.59;86.36;96929.06;2567046;28;20058;-75
2021/12/05 04:31:10;;;;;;;10.50;6.30;;;;;;;1.60;86.32;96927.34;2567229;28;20043;-76
2021/12/05 04:32:25;;;;;;;9.73;5.68;;;;;;;1.73;86.50;96926.28;2567156;28;20055;-74
2021/12/05 04:33:41;;;;;;;8.70;5.68;;;;;;;1.70;85.98;96928.91;2567026;28;20508;-74
2021/12/05 04:34:57;;;;;;;10.00;5.30;;;;;;;1.66;86.19;96924.66;2567220;28;20521;-74
2021/12/05 04:36:13;;;;;;;9.95;5.90;;;;;;;1.59;86.14;96929.06;2566810;28;20050;-74
2021/12/05 04:37:29;;;;;;;8.23;5.45;;;;;;;1.51;86.34;96931.78;2567060;28;20516;-73
2021/12/05 04:38:46;;;;;;;6.97;5.05;;;;;;;1.48;86.44;96936.16;2567229;28;20047;-74
2021/12/05 04:40:05;;;;;;;8.93;5.25;;;;;;;1.45;86.44;96937.03;2567156;28;20812;-74
2021/12/05 04:41:23;;;;;;;7.32;4.95;;;;;;;1.40;86.41;96939.69;2566727;28;20138;-73
2021/12/05 04:42:39;;;;;;;8.50;5.45;;;;;;;1.36;86.61;96937.19;2567206;28;20476;-73
2021/12/05 04:43:55;;;;;;;7.90;4.97;;;;;;;1.36;86.71;96943.22;2566410;28;20058;-74
2021/12/05 04:45:16;;;;;;;8.18;5.32;;;;;;;1.32;86.61;96938.94;2567022;28;20050;-73
2021/12/05 04:46:31;;;;;;;10.23;5.50;;;;;;;1.27;86.81;96939.03;2566407;28;20081;-73
2021/12/05 04:47:48;;;;;;;8.27;5.15;;;;;;;1.27;86.87;96943.34;2566172;28;20058;-73
2021/12/05 04:49:06;;;;;;;8.73;5.20;;;;;;;1.24;86.86;96948.53;2568644;28;20050;-73
2021/12/05 04:50:23;;;;;;;9.25;5.60;;;;;;;1.20;86.85;96945.16;2569197;28;20113;-73
2021/12/05 04:51:41;;;;;;;7.45;4.40;;;;;;;1.22;87.12;96955.44;2568785;28;20142;-74
2021/12/05 04:52:56;;;;;;;7.63;4.75;;;;;;;1.30;87.20;96952.75;2569288;28;20050;-73
2021/12/05 04:54:16;;;;;;;8.07;5.25;;;;;;;1.29;87.34;96958.78;2569197;28;20066;-73
2021/12/05 04:55:32;;;;;;;14.52;8.55;;;;;;;1.25;87.27;96956.25;2568422;28;20062;-73
2021/12/05 04:56:49;;;;;;;9.88;6.22;;;;;;;1.31;87.25;96963.03;2568870;28;20051;-77
2021/12/05 04:58:06;;;;;;;8.07;5.05;;;;;;;1.30;87.48;96965.66;2568791;28;20074;-74
2021/12/05 04:59:24;;;;;;;6.25;4.15;;;;;;;1.39;87.58;96962.91;2568936;28;20533;-75
2021/12/05 05:00:43;;;;;;;6.28;3.83;;;;;;;1.49;87.37;96967.06;2568037;28;20059;-76
2021/12/05 05:01:58;;;;;;;6.13;3.92;;;;;;;1.75;86.06;96965.81;2568893;28;20504;-75
2021/12/05 05:03:14;;;;;;;6.97;4.10;;;;;;;1.89;85.28;96964.72;2568845;28;20138;-73
2021/12/05 05:04:37;;;;;;;6.63;4.40;;;;;;;1.92;84.72;96968.09;2568363;28;20070;-73
2021/12/05 05:06:03;;;;;;;5.82;3.85;;;;;;;1.92;84.70;96969.81;2568533;28;20504;-74
2021/12/05 05:07:25;;;;;;;5.53;4.13;;;;;;;1.87;84.94;96974.22;2568656;28;20062;-73
2021/12/05 05:08:42;;;;;;;7.28;3.90;;;;;;;1.92;84.65;96975.84;2568843;28;20061;-73
2021/12/05 05:10:06;;;;;;;5.65;4.15;;;;;;;1.93;84.40;96979.25;2568688;28;20463;-73
2021/12/05 05:11:25;;;;;;;6.07;3.47;;;;;;;1.91;84.55;96979.31;2568694;28;20498;-74
2021/12/05 05:12:41;;;;;;;5.03;3.50;;;;;;;1.94;84.46;96973.22;2568852;28;20108;-73
2021/12/05 05:13:56;;;;;;;5.53;3.60;;;;;;;2.00;84.06;96978.28;2568720;28;20051;-74
2021/12/05 05:15:14;;;;;;;6.60;4.25;;;;;;;2.00;84.27;96980.88;2568815;28;20043;-73
2021/12/05 05:16:30;;;;;;;5.00;3.65;;;;;;;2.05;83.91;96983.38;2568701;28;20469;-76
2021/12/05 05:17:49;;;;;;;6.07;3.90;;;;;;;2.10;83.57;96977.25;2568412;28;20057;-76
2021/12/05 05:19:04;;;;;;;7.32;4.05;;;;;;;2.04;83.47;96972.19;2567750;28;20055;-75
2021/12/05 05:20:36;;;;;;;5.30;3.50;;;;;;;2.06;83.66;96972.19;2567441;28;20050;-75
2021/12/05 05:40:25;;;;;;;6.30;4.18;;;;;;;1.09;86.18;97011.47;2567893;28;20051;-74
2021/12/05 05:42:14;;;;;;;7.38;4.63;;;;;;;1.04;86.68;97015.84;2567753;28;20142;-74
2021/12/05 05:47:14;;;;;;;5.72;3.97;;;;;;;0.89;87.17;97020.31;2568348;28;20864;-74
2021/12/05 05:48:38;;;;;;;5.18;3.65;;;;;;;0.89;87.18;97017.75;2568375;28;20556;-74
2021/12/05 05:50:00;;;;;;;5.85;3.75;;;;;;;1.01;87.32;97021.03;2568303;28;20054;-74
2021/12/05 05:51:17;;;;;;;5.57;3.42;;;;;;;1.10;87.01;97023.47;2568486;28;20098;-74
2021/12/05 05:52:33;;;;;;;5.07;3.30;;;;;;;1.15;86.65;97029.44;2568209;28;20059;-74
2021/12/05 05:53:49;;;;;;;4.50;3.40;;;;;;;1.21;86.28;97029.34;2568138;28;20498;-74
2021/12/05 05:55:05;;;;;;;5.35;3.00;;;;;;;1.36;85.75;97024.84;2568378;28;20057;-74
2021/12/05 05:56:26;;;;;;;4.60;2.97;;;;;;;1.46;85.04;97030.72;2568121;28;20094;-74
2021/12/05 05:57:48;;;;;;;7.00;3.35;;;;;;;1.45;84.74;97026.44;2568553;28;20456;-74
2021/12/05 05:59:12;;;;;;;4.18;3.13;;;;;;;1.48;84.52;97032.41;2568701;28;20057;-74
2021/12/05 06:00:35;;;;;;;5.60;3.00;;;;;;;1.44;84.48;97038.50;2567413;28;20272;-74
2021/12/05 06:03:20;;;;;;;4.03;2.95;;;;;;;1.37;84.71;97045.47;2568410;28;20058;-74
2021/12/05 06:04:36;;;;;;;4.95;3.38;;;;;;;1.25;84.51;97045.63;2568181;28;20131;-77
2021/12/05 06:06:02;;;;;;;5.30;3.45;;;;;;;1.13;84.58;97050.06;2568109;28;20066;-75
2021/12/05 06:07:18;;;;;;;4.35;3.38;;;;;;;1.04;84.92;97051.94;2568319;28;20454;-74
2021/12/05 06:08:37;;;;;;;6.07;3.67;;;;;;;0.95;85.19;97053.72;2568257;28;20051;-76
2021/12/05 06:09:52;;;;;;;4.70;3.40;;;;;;;0.84;85.09;97056.44;2568210;28;20129;-73
2021/12/05 06:11:11;;;;;;;5.22;3.80;;;;;;;0.79;85.33;97060.81;2568174;28;20502;-76
2021/12/05 06:12:27;;;;;;;5.50;3.33;;;;;;;0.73;85.70;97060.84;2568090;28;20144;-75
2021/12/05 06:13:43;;;;;;;6.28;3.60;;;;;;;0.67;86.02;97058.38;2568154;28;20082;-77
2021/12/05 06:14:59;;;;;;;5.28;3.60;;;;;;;0.56;86.13;97056.75;2567948;28;20078;-73
2021/12/05 06:16:15;;;;;;;4.63;3.42;;;;;;;0.52;86.30;97054.22;2568192;28;20058;-73
2021/12/05 06:17:31;;;;;;;6.28;4.13;;;;;;;0.51;86.52;97066.25;2567948;28;20144;-74
2021/12/05 06:18:48;;;;;;;5.70;3.88;;;;;;;0.53;86.45;97066.22;2567938;28;20066;-73
2021/12/05 06:20:18;;;;;;;8.32;4.85;;;;;;;0.58;86.49;97061.88;2568351;28;20145;-76
2021/12/05 06:21:33;;;;;;;5.40;3.70;;;;;;;0.53;86.51;97068.78;2568051;28;20078;-80
2021/12/05 06:22:50;;;;;;;5.15;3.58;;;;;;;0.49;86.80;97065.41;2568162;28;20606;-75
2021/12/05 06:24:06;;;;;;;5.50;3.83;;;;;;;0.47;86.77;97079.16;2568236;28;20047;-74
2021/12/05 06:25:24;;;;;;;7.10;4.45;;;;;;;0.40;87.05;97071.47;2568303;28;20086;-74
2021/12/05 06:26:41;;;;;;;7.80;4.90;;;;;;;0.48;86.85;97079.13;2568024;28;20078;-74
2021/12/05 06:28:01;;;;;;;8.98;5.43;;;;;;;0.52;87.02;97067.94;2567779;28;20066;-78
2021/12/05 06:29:21;;;;;;;9.02;5.07;;;;;;;0.65;87.18;97075.56;2567514;28;20054;-75
2021/12/05 06:30:49;;;;;;;10.57;5.53;;;;;;;0.73;86.48;97076.31;2567416;28;20055;-74
2021/12/05 06:38:09;;;;;;;12.73;5.38;;;;;;;0.74;85.98;97080.59;2567863;28;20089;-73
2021/12/05 06:47:15;;;;;;;7.05;4.60;;;;;;;0.40;86.07;97086.94;2567881;28;20069;-76
2021/12/05 06:48:30;;;;;;;9.10;5.35;;;;;;;0.27;85.74;97095.63;2567648;28;20054;-75
2021/12/05 06:49:46;;;;;;;9.40;5.13;;;;;;;0.20;86.15;97096.56;2567513;28;20137;-75
2021/12/05 06:51:02;;;;;;;9.05;5.15;;;;;;;0.14;86.33;97092.31;2567883;28;20509;-75
2021/12/05 06:52:18;;;;;;;10.43;4.95;;;;;;;0.08;86.44;97093.22;2568089;28;20050;-76
2021/12/05 06:53:34;;;;;;;10.57;5.57;;;;;;;-0.03;86.39;97101.03;2567656;28;20062;-76
2021/12/05 06:54:50;;;;;;;11.32;5.75;;;;;;;-0.07;86.58;97106.22;2567976;28;20519;-73
2021/12/05 06:56:07;;;;;;;8.82;5.43;;;;;;;-0.11;86.46;97102.78;2567676;28;20066;-74
2021/12/05 06:57:23;;;;;;;8.43;5.43;;;;;;;-0.15;87.09;97101.94;2567826;28;20043;-73
2021/12/05 06:58:38;;;;;;;12.00;5.82;;;;;;;-0.23;86.98;97095.16;2567779;28;20575;-75
2021/12/05 06:59:54;;;;;;;8.60;5.10;;;;;;;-0.27;87.42;97101.19;2567710;28;20071;-76
2021/12/05 07:01:12;;;;;;;10.52;5.57;;;;;;;-0.28;87.64;97108.03;2567473;28;20109;-75
2021/12/05 07:02:27;;;;;;;9.48;5.53;;;;;;;-0.29;87.75;97099.50;2568007;28;20528;-75
2021/12/05 07:03:46;;;;;;;11.32;5.47;;;;;;;-0.26;87.86;97108.03;2567605;28;20269;-75
2021/12/05 07:06:22;;;;;;;9.43;5.40;;;;;;;-0.23;87.84;97110.59;2567402;28;20059;-75
2021/12/05 07:07:40;;;;;;;8.65;5.05;;;;;;;-0.23;87.96;97108.00;2567733;28;20051;-75
2021/12/05 07:09:03;;;;;;;7.68;4.10;;;;;;;-0.27;87.81;97111.47;2567713;28;20054;-75
2021/12/05 07:10:20;;;;;;;8.93;4.47;;;;;;;-0.33;87.90;97110.66;2567566;28;20061;-75
2021/12/05 07:12:19;;;;;;;8.95;4.80;;;;;;;-0.38;88.16;97111.56;2567220;28;20104;-75
2021/12/05 07:14:07;;;;;;;8.73;4.20;;;;;;;-0.48;88.16;97113.34;2567327;28;20051;-75
2021/12/05 07:19:58;;;;;;;6.85;4.00;;;;;;;-0.45;88.81;97127.00;2567428;28;20189;-75
2021/12/05 07:22:40;;;;;;;10.55;5.22;;;;;;;-0.45;89.09;97129.56;2566873;28;20066;-74
2021/12/05 07:25:13;;;;;;;8.55;5.10;;;;;;;-0.46;89.29;97129.59;2567456;28;20098;-75
2021/12/05 07:40:32;;;;;;;12.57;5.53;;;;;;;-0.34;88.84;97132.09;2567164;28;20047;-74
2021/12/05 07:43:06;;;;;;;14.20;6.65;;;;;;;-0.37;88.55;97139.81;2567403;28;20787;-74
2021/12/05 07:44:22;;;;;;;13.45;6.47;;;;;;;-0.41;88.53;97135.56;2567353;28;20485;-74
2021/12/05 07:45:46;;;;;;;16.92;8.10;;;;;;;-0.41;88.52;97142.44;2567456;28;20161;-74
2021/12/05 07:47:02;;;;;;;18.15;8.90;;;;;;;-0.44;88.46;97146.72;2567657;28;20062;-83
2021/12/05 07:48:22;;;;;;;25.42;11.65;;;;;;;-0.24;88.54;97145.75;2567417;28;20414;-74
2021/12/05 07:49:37;;;;;;;23.67;11.60;;;;;;;-0.20;88.21;97150.00;2566343;28;20039;-74
2021/12/05 07:51:05;;;;;;;21.10;11.85;;;;;;;-0.20;87.90;97146.59;2566252;28;20054;-74
2021/12/05 07:52:24;;;;;;;25.77;12.13;;;;;;;-0.24;88.13;97150.03;2566284;28;20055;-74
2021/12/05 07:53:55;;;;;;;21.20;11.18;;;;;;;-0.27;88.41;97150.94;2564662;28;20047;-74
2021/12/05 07:55:19;;;;;;;23.35;11.70;;;;;;;-0.29;88.65;97150.94;2566860;28;20386;-74
2021/12/05 07:56:48;;;;;;;26.02;11.80;;;;;;;-0.31;88.77;97150.09;2566973;28;20059;-74
2021/12/05 08:00:55;;;;;;;18.75;9.73;;;;;;;-0.31;89.43;97142.38;2565464;28;20054;-75
2021/12/05 08:15:30;;;;;;;21.90;11.55;;;;;;;0.15;89.02;97163.50;2567079;28;20073;-76
2021/12/05 08:16:44;;;;;;;26.27;13.50;;;;;;;0.16;88.72;97166.97;2566400;28;20145;-75
2021/12/05 08:18:00;;;;;;;25.90;13.38;;;;;;;0.24;88.40;97170.31;2567620;28;20473;-76
2021/12/05 08:19:18;;;;;;;24.85;14.00;;;;;;;0.22;88.43;97172.06;2567594;28;20047;-76
2021/12/05 08:20:38;;;;;;;27.90;14.77;;;;;;;0.18;88.47;97171.22;2567277;28;20512;-76
2021/12/05 08:21:56;;;;;;;28.17;14.82;;;;;;;0.17;88.42;97177.22;2567383;28;20075;-76
2021/12/05 08:23:13;;;;;;;29.92;15.02;;;;;;;0.14;88.48;97179.81;2567763;28;20456;-74
2021/12/05 08:24:40;;;;;;;25.05;14.15;;;;;;;0.10;88.54;97178.97;2568704;28;20059;-74
2021/12/05 08:26:15;;;;;;;21.95;12.20;;;;;;;0.06;88.60;97185.03;2568696;28;20061;-74
2021/12/05 08:27:31;;;;;;;25.08;13.18;;;;;;;0.04;88.75;97184.19;2569376;28;20061;-76
2021/12/05 08:30:11;;;;;;;24.23;12.98;;;;;;;0.06;88.64;97186.72;2569597;28;20162;-77
2021/12/05 08:35:41;;;;;;;22.42;13.23;;;;;;;0.09;89.12;97192.72;2569586;28;20497;-76
2021/12/05 09:21:34;;;;;;;33.30;15.35;;;;;;;0.75;88.49;97213.69;2568335;28;20063;-76
2021/12/05 10:02:43;;;;;;;45.60;22.20;;;;;;;2.51;83.60;97194.38;2568092;28;20050;-74
2021/12/05 10:09:10;;;;;;;32.55;14.52;;;;;;;2.68;81.45;97208.75;2567695;28;20047;-74
2021/12/05 10:13:28;;;;;;;23.35;12.25;;;;;;;2.53;81.62;97218.47;2567951;28;20051;-73
2021/12/05 10:15:00;;;;;;;27.73;13.20;;;;;;;2.62;80.44;97221.78;2567742;28;20068;-74
2021/12/05 10:16:24;;;;;;;26.98;12.30;;;;;;;2.61;80.84;97222.66;2566953;28;20071;-73
2021/12/05 10:18:34;;;;;;;22.15;10.85;;;;;;;2.72;80.58;97210.41;2567471;28;20059;-73
2021/12/05 10:20:17;;;;;;;21.85;9.30;;;;;;;2.72;80.25;97219.91;2567616;28;20569;-73
2021/12/05 10:34:56;;;;;;;9.88;4.47;;;;;;;2.99;78.50;97199.63;2567528;28;20072;-73
2021/12/05 10:36:25;;;;;;;8.07;4.50;;;;;;;3.18;77.85;97203.56;2567012;28;20070;-73
2021/12/05 10:37:49;;;;;;;7.95;3.80;;;;;;;3.24;77.74;97200.91;2567214;28;20047;-73
2021/12/05 10:39:10;;;;;;;10.73;4.53;;;;;;;3.24;77.49;97200.91;2567788;28;20088;-73
2021/12/05 10:40:38;;;;;;;7.00;3.45;;;;;;;3.24;77.41;97211.25;2567716;28;20085;-73
2021/12/05 10:42:12;;;;;;;9.63;3.97;;;;;;;3.21;78.24;97210.44;2567394;28;20097;-73
2021/12/05 10:43:30;;;;;;;11.13;4.28;;;;;;;3.19;79.43;97213.03;2567530;28;20537;-73
2021/12/05 10:44:46;;;;;;;7.75;3.95;;;;;;;3.15;79.50;97206.22;2567606;28;20133;-73
2021/12/05 10:46:08;;;;;;;11.43;4.18;;;;;;;3.10;79.57;97218.41;2567229;28;20051;-73
2021/12/05 10:47:38;;;;;;;7.55;3.95;;;;;;;3.06;78.77;97215.00;2567610;28;20050;-73
2021/12/05 10:49:12;;;;;;;8.45;4.47;;;;;;;3.23;78.57;97214.72;2567601;28;20047;-72
2021/12/05 10:50:37;;;;;;;8.82;4.78;;;;;;;3.18;78.57;97210.50;2567791;28;20501;-73
2021/12/05 10:51:55;;;;;;;11.18;5.30;;;;;;;3.23;78.39;97219.88;2567730;28;20556;-73
2021/12/05 10:53:18;;;;;;;9.65;5.00;;;;;;;3.31;77.15;97219.75;2567623;28;20109;-73
2021/12/05 10:54:34;;;;;;;12.55;5.47;;;;;;;3.29;76.63;97218.06;2567570;28;20043;-73
2021/12/05 10:56:01;;;;;;;11.82;6.00;;;;;;;3.28;76.99;97211.19;2567601;28;20489;-73
2021/12/05 10:57:27;;;;;;;17.17;6.60;;;;;;;3.17;77.46;97214.81;2567492;28;20051;-73
2021/12/05 10:58:59;;;;;;;11.35;5.47;;;;;;;3.19;77.43;97215.63;2567637;28;20082;-73
2021/12/05 11:00:17;;;;;;;14.05;6.40;;;;;;;3.20;77.27;97219.91;2567466;28;20133;-73
2021/12/05 11:01:51;;;;;;;14.32;7.55;;;;;;;3.27;77.82;97209.47;2567613;28;20047;-73
2021/12/05 11:03:18;;;;;;;13.85;5.65;;;;;;;3.19;76.98;97207.88;2567818;28;20093;-74
2021/12/05 11:04:55;;;;;;;12.23;5.63;;;;;;;3.28;77.32;97206.00;2567711;28;20054;-73
2021/12/05 11:06:19;;;;;;;9.10;4.25;;;;;;;3.21;76.82;97202.69;2565249;28;20477;-73
2021/12/05 11:07:38;;;;;;;8.30;3.10;;;;;;;3.19;76.79;97207.03;2555991;29;20051;-73
2021/12/05 11:08:57;;;;;;;8.30;3.90;;;;;;;3.17;76.99;97201.88;2561659;28;20063;-74
2021/12/05 11:10:13;;;;;;;9.00;3.78;;;;;;;3.20;76.71;97204.41;2567510;28;20047;-73
2021/12/05 11:11:29;;;;;;;3.70;2.63;;;;;;;3.15;76.87;97211.41;2566824;28;20927;-74
2021/12/05 11:12:44;;;;;;;6.65;3.25;;;;;;;3.24;76.96;97202.63;2567689;28;20648;-73
2021/12/05 11:14:03;;;;;;;9.50;3.70;;;;;;;3.31;77.13;97204.22;2567646;28;20399;-73
2021/12/05 11:15:19;;;;;;;10.13;4.28;;;;;;;3.30;77.38;97205.09;2567439;28;20056;-73
2021/12/05 11:16:48;;;;;;;13.68;4.80;;;;;;;3.33;77.96;97210.22;2567324;28;20061;-73
2021/12/05 11:18:04;;;;;;;7.85;3.90;;;;;;;3.32;76.09;97193.00;2567656;28;20055;-73
2021/12/05 11:19:38;;;;;;;10.32;4.57;;;;;;;3.33;76.74;97196.41;2567290;28;20066;-73
2021/12/05 11:20:54;;;;;;;6.30;3.13;;;;;;;3.30;75.38;97206.81;2567196;28;20046;-73
2021/12/05 11:22:18;;;;;;;5.68;3.08;;;;;;;3.35;76.35;97192.94;2567644;28;20074;-73
2021/12/05 11:23:33;;;;;;;6.28;3.97;;;;;;;3.39;76.98;97193.72;2566752;28;20066;-73
2021/12/05 11:24:59;;;;;;;5.50;3.03;;;;;;;3.35;76.37;97198.09;2566690;28;20062;-73
2021/12/05 11:26:17;;;;;;;9.43;3.67;;;;;;;3.33;77.39;97197.28;2567090;28;20058;-73
2021/12/05 11:27:35;;;;;;;5.32;3.28;;;;;;;3.34;77.54;97190.34;2566603;28;20532;-74
2021/12/05 11:28:55;;;;;;;33.80;5.43;;;;;;;3.47;77.12;97194.41;2566793;28;20482;-73
2021/12/05 11:30:19;;;;;;;28.42;4.90;;;;;;;3.48;76.33;97197.88;2567251;28;20442;-72
2021/12/05 11:31:35;;;;;;;13.00;3.63;;;;;;;3.48;76.74;97193.53;2567044;28;20895;-73
2021/12/05 11:33:03;;;;;;;6.45;3.47;;;;;;;3.45;76.83;97200.53;2567098;28;20054;-73
2021/12/05 11:34:29;;;;;;;8.70;2.97;;;;;;;3.47;75.92;97203.94;2567190;28;20055;-73